Duluth International Airport
KDLH : rendu visible

Aérodrome :











RETROUVEZ-NOUS SUR...

 
LOGIN :

S'inscrire | Disclaimer

   EN    FR    IT 

 









Légende :    VFR   VFR Marginal   IFR   IFR Intensif   IFR Très Intensif
Visi : 
Plafond : 
>= 8 km
>= 3000ft
5 à 8 km
1000 à 3000 ft
1500m à 5 km
500 à 1000 ft
800 à 1500m
200 à 500 ft
< 800m
< 200 ft
Symboles :   Orages  Brouillard  Fortes neiges  Fortes précipitations  Vent > 20 kt






- Altitude de l'aérodrome : 1428 ft
- Code IATA : DLH


KDLH - Duluth International

DERNIER METAR :
  • 191155Z 15003KT 1/2SM R09/3500V4000FT FZFG VV003 M02/M03 A2967 RMK AO2 SLP067 60002 70002 I1001 I6001 T10171028 11017 21022 53006

METARs EXPIRÉS :
  • 191055Z 15003KT 3/4SM R09/2600V3000FT BR OVC002 M02/M03 A2966 RMK AO2 SNE02B25E32 SLP064 P0000 T10171028
  • 190955Z 15003KT 1 3/4SM -SN BR OVC003 M02/M03 A2965 RMK AO2 SNB0856 SLP061 P0000 T10221028

TAF KDLH
Valide du 19 à 12h jusqu'au 20 à 12h UTC


191140Z 1912/2012 00000KT 1SM -SN BR OVC003
FM191500 VRB03KT 3SM -SNDZ OVC005
FM192100 27005KT P6SM OVC006
FM200200 29003KT 5SM BR BKN007



MET'MAP, la Météo Aéronautique d'un coup d'oeil ! - Copyright ORBIFLY Décembre 2007 - Disclaimer

ORBIFLY MET'MAP TEAM :

Programmation & Développement : Alexandra Zaïnal
Conception & Développement : Baudouin d'Aumeries
Co-Programmation & Développement : Marc-Olivier Méhu
Soutien technique & logistique : Manuel Goepfert

Contact : metmap@orbifly.com




SOURCES & CREDITS :

   NOAA       Earth
Advisory